This demonstration page uses our WeatherBlox Daily Observations layout. Learn more.

39.92423, -83.80882

Hourly Observations for July 24, 2016

Temp ( °F °C ) Dew Point ( °F °C ) Humidity (%) Winds ( mph kmh ) Pressure ( in mb ) Visibility ( mi km ) Precip ( " mm )
12:56 am 00:56 Clear 76 24.4 72 22.2 88 88 SSE 6 9 29.98 1015 10 16.0934 0 0
2:56 am 02:56 Clear 72 22.2 71 21.7 97 97 undefined N/A 29.99 1016 10 16.0934 0 0
3:56 am 03:56 Clear 74 23.3 72 22.2 94 94 Calm N/A 10 16.0934 0 0
4:56 am 04:56 Clear with Mist and Fog 72 22.2 70 21.1 94 94 Calm 29.99 1016 6 9.65604 0 0
5:56 am 05:56 Mostly Cloudy 73 22.8 71 21.7 94 94 Calm 30 1016 10 16.0934 0 0
6:56 am 06:56 Sunny with Mist and Fog 71 21.7 70 21.1 96 96 Calm 30 1016 4 6.43736 0 0
7:04 am 07:04 Sunny with Mist and Fog 72 22 72 22 100 100 SSW 3 6 30 1016 1.75 2.816345 0 0
7:14 am 07:14 Sunny with Mist and Fog 72 22 72 22 100 100 SSE 3 6 30 1016 2.5 4.02335 0 0
7:21 am 07:21 Sunny with Mist and Fog 72 22 72 22 100 100 undefined N/A N/A 3 4.82802 0 0
7:56 am 07:56 Sunny 76 24.4 74 23.3 94 94 Calm 29.98 1015 9 14.48406 0 0
8:56 am 08:56 Sunny 79 26.1 74 23.3 85 85 undefined N/A N/A 10 16.0934 0 0
9:56 am 09:56 Mostly Sunny 82 27.8 75 23.9 79 79 WSW 6 9 30.01 1016 10 16.0934 0 0
10:56 am 10:56 Mostly Sunny 84 28.9 75 23.9 74 74 SW 8 13 30.02 1017 10 16.0934 0 0
11:56 am 11:56 Sunny 87 30.6 77 25 72 72 WSW 8 13 30.01 1016 10 16.0934 0 0
12:56 pm 12:56 Partly Cloudy 88 31.1 75 23.9 66 66 WSW 9 15 30 1016 10 16.0934 0 0
1:56 pm 13:56 Partly Cloudy 91 32.8 74 23.3 57 57 W 5 7 30 1016 10 16.0934 0 0
2:56 pm 14:56 Mostly Sunny 92 33.3 74 23.3 56 56 VRB 6 9 29.99 1016 10 16.0934 0 0
3:56 pm 15:56 Mostly Cloudy 89 31.7 75 23.9 63 63 undefined N/A 29.98 1015 10 16.0934 0 0
4:28 pm 16:28 Partly Cloudy with Nearby Thunderstorms 91 33 73 23 56 56 Calm 29.94 1014 10 16.0934 0 0
4:44 pm 16:44 Partly Cloudy 91 33 73 23 56 56 W 5 7 29.94 1014 10 16.0934 0 0
4:56 pm 16:56 Partly Cloudy 91 32.8 74 23.3 57 57 undefined N/A N/A 10 16.0934 0 0
5:39 pm 17:39 Partly Cloudy with Nearby Thunderstorms 84 29 75 24 74 74 SSE 9 15 N/A 10 16.0934 0 0
5:56 pm 17:56 Mostly Cloudy with Nearby Thunderstorms 85 29.4 75 23.9 72 72 S 9 15 29.97 1015 10 16.0934 0 0
6:43 pm 18:43 Mostly Sunny 82 28 72 22 70 70 SW 6 9 N/A 10 16.0934 0 0
6:56 pm 18:56 Sunny 84 28.9 74 23.3 72 72 SW 7 11 29.96 1014 10 16.0934 0 0
7:56 pm 19:56 Sunny 84 28.9 76 24.4 77 77 SSE 5 7 N/A 10 16.0934 0 0
8:56 pm 20:56 Sunny 80 26.7 74 23.3 82 82 SSE 3 6 29.96 1014 10 16.0934 0 0
9:56 pm 21:56 Clear 80 26.7 74 23.3 82 82 S 5 7 N/A 10 16.0934 0 0
10:56 pm 22:56 Clear 79 26.1 75 23.9 88 88 SSE 3 6 29.96 1015 10 16.0934 0 0
11:56 pm 23:56 Clear with Mist and Fog 75 23.9 73 22.8 94 94 undefined N/A 29.96 1015 6 9.65604 0 0

Powered by AerisWeather